createdAt,value
2023-01-29T00:04:45.057Z,18.17
2023-01-29T00:09:48.807Z,24.20
2023-01-29T00:14:52.867Z,20.65
2023-01-29T00:19:57.877Z,16.13
2023-01-29T00:25:01.593Z,21.23
2023-01-29T00:30:13.182Z,16.45
2023-01-29T00:35:18.498Z,16.27
2023-01-29T00:40:22.816Z,18.65
2023-01-29T00:45:26.662Z,18.77
2023-01-29T00:50:32.876Z,19.33
2023-01-29T00:55:36.523Z,21.90
2023-01-29T01:00:40.318Z,25.27
2023-01-29T01:05:46.124Z,18.80
2023-01-29T01:10:59.306Z,20.20
2023-01-29T01:16:03.049Z,24.08
2023-01-29T01:21:08.631Z,22.88
2023-01-29T01:26:12.340Z,22.23
2023-01-29T01:31:16.549Z,24.40
2023-01-29T01:36:21.855Z,22.05
2023-01-29T01:41:25.617Z,26.27
2023-01-29T01:46:30.636Z,23.15
2023-01-29T01:51:38.672Z,20.85
2023-01-29T01:56:46.675Z,20.80
2023-01-29T02:01:55.055Z,19.48
2023-01-29T02:07:19.950Z,23.02
2023-01-29T02:12:24.296Z,22.05
2023-01-29T02:17:28.108Z,21.48
2023-01-29T02:22:55.026Z,26.90
2023-01-29T02:28:11.909Z,23.73
2023-01-29T02:33:25.135Z,24.20
2023-01-29T02:38:37.471Z,23.00
2023-01-29T02:43:47.369Z,25.70
2023-01-29T02:48:58.766Z,25.95
2023-01-29T02:54:08.614Z,26.38
2023-01-29T02:59:18.072Z,23.77
2023-01-29T03:04:25.669Z,24.38
2023-01-29T03:09:35.435Z,22.70
2023-01-29T03:14:56.936Z,26.50
2023-01-29T03:20:02.081Z,20.25
2023-01-29T03:25:26.855Z,24.00
2023-01-29T03:36:11.516Z,25.92
2023-01-29T03:41:24.773Z,24.83
2023-01-29T03:46:36.643Z,27.60
2023-01-29T03:51:51.506Z,24.50
2023-01-29T03:57:01.615Z,25.67
2023-01-29T04:02:10.169Z,26.65
2023-01-29T04:07:17.385Z,29.02
2023-01-29T04:12:26.098Z,28.83
2023-01-29T04:17:40.183Z,26.25
2023-01-29T04:22:53.339Z,29.48
2023-01-29T04:28:06.319Z,27.10
2023-01-29T04:33:29.302Z,30.73
2023-01-29T04:38:43.307Z,25.85
2023-01-29T04:43:57.370Z,25.95
2023-01-29T04:49:13.461Z,25.15
2023-01-29T04:54:23.682Z,28.10
2023-01-29T04:59:32.736Z,26.83
2023-01-29T05:04:40.832Z,26.88
2023-01-29T05:09:47.120Z,28.55
2023-01-29T05:14:51.851Z,30.53
2023-01-29T05:19:58.050Z,28.52
2023-01-29T05:25:01.671Z,29.47
2023-01-29T05:30:06.544Z,30.45
2023-01-29T05:35:11.767Z,27.55
2023-01-29T05:40:15.938Z,29.10
2023-01-29T05:45:20.425Z,29.52
2023-01-29T05:50:26.405Z,32.72
2023-01-29T05:55:30.569Z,25.50
2023-01-29T06:00:34.298Z,27.52
2023-01-29T06:05:40.946Z,29.27
2023-01-29T06:10:44.727Z,26.27
2023-01-29T06:15:48.450Z,26.80
2023-01-29T06:20:53.536Z,26.00
2023-01-29T06:26:01.066Z,30.13
2023-01-29T06:36:31.872Z,27.98
2023-01-29T06:41:36.106Z,26.55
2023-01-29T06:46:39.757Z,25.75
2023-01-29T06:51:44.954Z,25.60
2023-01-29T06:56:48.759Z,25.88
2023-01-29T07:01:52.458Z,24.75
2023-01-29T07:06:57.556Z,27.00
2023-01-29T07:12:01.261Z,32.13
2023-01-29T07:17:05.242Z,28.08
2023-01-29T07:22:10.318Z,24.10
2023-01-29T07:27:13.940Z,26.20
2023-01-29T07:32:17.733Z,25.98
2023-01-29T07:37:22.827Z,30.83
2023-01-29T07:42:26.532Z,26.98
2023-01-29T07:47:30.192Z,27.80
2023-01-29T07:52:35.755Z,26.92
2023-01-29T07:57:39.467Z,23.35
2023-01-29T08:02:43.277Z,27.67
2023-01-29T08:08:05.787Z,25.70
2023-01-29T08:13:10.811Z,24.13
2023-01-29T08:18:15.255Z,24.27
2023-01-29T08:23:20.344Z,22.50
2023-01-29T08:28:24.070Z,23.35
2023-01-29T08:33:38.806Z,23.80
2023-01-29T08:38:44.233Z,21.23
2023-01-29T08:43:47.882Z,19.60
2023-01-29T08:48:51.683Z,23.90
2023-01-29T08:53:56.786Z,24.52
2023-01-29T08:59:00.629Z,20.92
2023-01-29T09:04:04.433Z,23.83
2023-01-29T09:09:09.704Z,27.75
2023-01-29T09:14:14.576Z,27.00
2023-01-29T09:19:18.246Z,22.77
2023-01-29T09:24:23.256Z,23.60
2023-01-29T09:29:26.902Z,22.10
2023-01-29T09:34:30.608Z,23.42
2023-01-29T09:39:35.735Z,23.33
2023-01-29T09:44:53.118Z,22.05
2023-01-29T09:50:00.172Z,25.50
2023-01-29T10:00:16.813Z,20.27
2023-01-29T10:05:46.124Z,22.15
2023-01-29T10:10:59.756Z,22.92
2023-01-29T10:16:22.693Z,19.85
2023-01-29T10:21:39.149Z,21.10
2023-01-29T10:26:45.021Z,23.55
2023-01-29T10:31:53.577Z,22.45
2023-01-29T10:36:57.970Z,20.70
2023-01-29T10:42:15.746Z,21.27
2023-01-29T10:47:40.536Z,19.75
2023-01-29T10:53:00.415Z,22.15
2023-01-29T10:58:15.453Z,19.38
2023-01-29T11:03:28.064Z,18.88
2023-01-29T11:08:39.337Z,19.48
2023-01-29T11:13:49.978Z,22.48
2023-01-29T11:18:57.588Z,20.40
2023-01-29T11:24:09.458Z,21.05
2023-01-29T11:29:38.642Z,20.77
2023-01-29T11:34:59.336Z,17.58
2023-01-29T11:40:03.780Z,20.30
2023-01-29T11:45:27.528Z,24.52
2023-01-29T11:50:33.903Z,23.25
2023-01-29T11:55:50.255Z,19.37
2023-01-29T12:00:57.996Z,23.45
2023-01-29T12:06:04.548Z,24.20
2023-01-29T12:11:14.488Z,23.42
2023-01-29T12:16:26.616Z,28.10
2023-01-29T12:21:36.816Z,22.40
2023-01-29T12:26:45.844Z,24.55
2023-01-29T12:31:58.351Z,31.42
2023-01-29T12:37:11.141Z,24.15
2023-01-29T12:42:19.637Z,28.88
2023-01-29T12:47:29.148Z,24.15
2023-01-29T12:52:40.647Z,25.80
2023-01-29T12:57:48.271Z,28.35
2023-01-29T13:03:00.478Z,30.38
2023-01-29T13:08:08.422Z,27.95
2023-01-29T13:13:17.586Z,26.50
2023-01-29T13:18:44.982Z,31.17
2023-01-29T13:23:50.876Z,30.95
2023-01-29T13:28:54.982Z,30.33
2023-01-29T13:34:15.864Z,28.25
2023-01-29T13:39:24.855Z,26.50
2023-01-29T13:44:32.755Z,29.95
2023-01-29T13:49:40.889Z,28.80
2023-01-29T13:54:53.801Z,26.90
2023-01-29T13:59:58.886Z,30.92
2023-01-29T14:05:41.539Z,31.75
2023-01-29T14:10:45.575Z,28.35
2023-01-29T14:16:33.547Z,30.77
2023-01-29T14:21:39.635Z,31.63
2023-01-29T14:26:46.108Z,25.08
2023-01-29T14:31:53.502Z,30.30
2023-01-29T14:37:03.354Z,25.17
2023-01-29T14:42:19.698Z,27.35
2023-01-29T14:48:02.622Z,25.80
2023-01-29T14:53:14.175Z,28.70
2023-01-29T14:58:23.700Z,29.70
2023-01-29T15:03:37.000Z,30.15
2023-01-29T15:08:46.814Z,23.25
2023-01-29T15:13:56.247Z,28.85
2023-01-29T15:19:15.419Z,25.25
2023-01-29T15:24:20.521Z,23.88
2023-01-29T15:29:27.044Z,21.08
2023-01-29T15:34:30.829Z,21.27
2023-01-29T15:39:44.931Z,21.40
2023-01-29T15:44:48.682Z,22.58
2023-01-29T15:49:53.352Z,20.05
2023-01-29T15:55:02.896Z,20.55
2023-01-29T16:00:10.895Z,20.58
2023-01-29T16:05:17.817Z,19.75
2023-01-29T16:10:25.244Z,19.50
2023-01-29T16:20:40.130Z,20.73
2023-01-29T16:25:45.296Z,18.90
2023-01-29T16:30:55.770Z,19.95
2023-01-29T16:35:59.502Z,25.10
2023-01-29T16:41:15.538Z,21.23
2023-01-29T16:46:24.483Z,23.53
2023-01-29T16:51:30.812Z,21.33
2023-01-29T16:56:37.575Z,22.63
2023-01-29T17:01:41.358Z,18.65
2023-01-29T17:06:48.148Z,18.65
2023-01-29T17:11:58.640Z,17.90
2023-01-29T17:17:04.873Z,23.55
2023-01-29T17:22:14.743Z,18.17
2023-01-29T17:27:21.891Z,25.08
2023-01-29T17:37:48.487Z,23.33
2023-01-29T17:42:53.560Z,25.80
2023-01-29T17:47:57.288Z,23.42
2023-01-29T17:53:01.759Z,21.25
2023-01-29T17:58:06.890Z,23.98
2023-01-29T18:03:10.566Z,21.27
2023-01-29T18:08:17.859Z,26.00
2023-01-29T18:13:22.950Z,26.05
2023-01-29T18:18:26.826Z,25.33
2023-01-29T18:23:31.375Z,21.95
2023-01-29T18:28:36.575Z,21.90
2023-01-29T18:33:40.245Z,22.55
2023-01-29T18:38:43.917Z,25.88
2023-01-29T18:43:49.011Z,24.25
2023-01-29T18:48:52.791Z,25.50
2023-01-29T18:53:56.565Z,25.00
2023-01-29T18:59:01.843Z,26.77
2023-01-29T19:04:05.614Z,25.08
2023-01-29T19:09:09.377Z,27.05
2023-01-29T19:14:14.470Z,26.63
2023-01-29T19:19:18.170Z,30.17
2023-01-29T19:24:22.206Z,27.30
2023-01-29T19:29:27.309Z,26.45
2023-01-29T19:34:30.936Z,27.50
2023-01-29T19:39:34.649Z,32.70
2023-01-29T19:44:39.973Z,25.08
2023-01-29T19:49:44.135Z,28.67
2023-01-29T19:54:48.021Z,26.10
2023-01-29T19:59:54.228Z,23.55
2023-01-29T20:04:58.904Z,29.10
2023-01-29T20:10:03.964Z,27.67
2023-01-29T20:15:11.235Z,26.83
2023-01-29T20:20:16.640Z,29.83
2023-01-29T20:25:20.555Z,28.92
2023-01-29T20:30:25.676Z,31.90
2023-01-29T20:35:31.051Z,31.73
2023-01-29T20:40:34.860Z,25.08
2023-01-29T20:45:41.898Z,26.20
2023-01-29T20:55:49.031Z,24.60
2023-01-29T21:00:54.644Z,27.25
2023-01-29T21:05:59.194Z,27.23
2023-01-29T21:11:03.154Z,30.02
2023-01-29T21:16:10.853Z,32.13
2023-01-29T21:21:14.592Z,29.63
2023-01-29T21:26:18.940Z,34.65
2023-01-29T21:31:24.126Z,27.67
2023-01-29T21:36:27.837Z,28.48
2023-01-29T21:41:45.466Z,28.17
2023-01-29T21:46:50.599Z,30.85
2023-01-29T21:51:54.712Z,30.15
2023-01-29T21:56:58.393Z,26.45
2023-01-29T22:02:03.849Z,28.75
2023-01-29T22:07:07.708Z,28.55
2023-01-29T22:12:11.487Z,29.13
2023-01-29T22:17:17.405Z,29.27
2023-01-29T22:22:21.778Z,31.67
2023-01-29T22:27:25.690Z,33.63
2023-01-29T22:32:33.373Z,34.10
2023-01-29T22:37:37.119Z,34.80
2023-01-29T22:42:40.929Z,34.80
2023-01-29T22:47:46.033Z,33.90
2023-01-29T22:52:54.023Z,32.88
2023-01-29T22:57:58.284Z,34.92
2023-01-29T23:03:04.403Z,39.97
2023-01-29T23:08:08.138Z,34.75
2023-01-29T23:13:11.877Z,29.98
2023-01-29T23:18:16.924Z,33.42
2023-01-29T23:23:20.579Z,32.78
2023-01-29T23:28:24.360Z,40.50
2023-01-29T23:33:29.389Z,33.72
2023-01-29T23:38:33.084Z,39.70
2023-01-29T23:43:36.764Z,33.10
2023-01-29T23:48:41.834Z,34.70
2023-01-29T23:53:45.510Z,32.88
2023-01-29T23:58:49.187Z,42.83
